sensor_id;sensor_type;location;lat;lon;timestamp;temperature;humidity
59975;DHT22;62136;-35.664;-63.766;2022-09-09T00:00:35;20.40;34.70
59975;DHT22;62136;-35.664;-63.766;2022-09-09T00:08:34;20.50;35.40
59975;DHT22;62136;-35.664;-63.766;2022-09-09T00:11:05;20.50;35.50
59975;DHT22;62136;-35.664;-63.766;2022-09-09T00:13:49;20.50;36.10
59975;DHT22;62136;-35.664;-63.766;2022-09-09T00:16:25;20.50;36.30
59975;DHT22;62136;-35.664;-63.766;2022-09-09T00:19:27;20.50;36.20
59975;DHT22;62136;-35.664;-63.766;2022-09-09T00:22:20;20.50;36.60
59975;DHT22;62136;-35.664;-63.766;2022-09-09T00:24:53;20.50;37.10
59975;DHT22;62136;-35.664;-63.766;2022-09-09T00:27:37;20.50;37.60
59975;DHT22;62136;-35.664;-63.766;2022-09-09T00:30:14;20.60;37.60
59975;DHT22;62136;-35.664;-63.766;2022-09-09T00:32:44;20.50;37.70
59975;DHT22;62136;-35.664;-63.766;2022-09-09T00:37:38;20.50;38.30
59975;DHT22;62136;-35.664;-63.766;2022-09-09T00:48:11;20.40;37.50
59975;DHT22;62136;-35.664;-63.766;2022-09-09T00:50:44;20.30;37.20
59975;DHT22;62136;-35.664;-63.766;2022-09-09T00:56:18;20.20;36.90
59975;DHT22;62136;-35.664;-63.766;2022-09-09T00:59:12;20.20;36.80
59975;DHT22;62136;-35.664;-63.766;2022-09-09T01:01:43;20.20;36.40
59975;DHT22;62136;-35.664;-63.766;2022-09-09T01:04:16;20.10;35.20
59975;DHT22;62136;-35.664;-63.766;2022-09-09T01:06:51;20.00;36.50
59975;DHT22;62136;-35.664;-63.766;2022-09-09T01:12:14;20.00;36.10
59975;DHT22;62136;-35.664;-63.766;2022-09-09T01:15:12;19.90;35.90
59975;DHT22;62136;-35.664;-63.766;2022-09-09T01:17:52;19.90;35.70
59975;DHT22;62136;-35.664;-63.766;2022-09-09T01:20:24;19.80;35.60
59975;DHT22;62136;-35.664;-63.766;2022-09-09T01:23:01;19.80;35.60
59975;DHT22;62136;-35.664;-63.766;2022-09-09T01:28:07;19.70;35.40
59975;DHT22;62136;-35.664;-63.766;2022-09-09T01:30:38;19.70;35.40
59975;DHT22;62136;-35.664;-63.766;2022-09-09T01:33:05;19.70;35.40
59975;DHT22;62136;-35.664;-63.766;2022-09-09T01:38:10;19.70;35.60
59975;DHT22;62136;-35.664;-63.766;2022-09-09T01:40:38;19.70;35.50
59975;DHT22;62136;-35.664;-63.766;2022-09-09T01:43:06;19.60;35.60
59975;DHT22;62136;-35.664;-63.766;2022-09-09T01:45:34;19.60;35.60
59975;DHT22;62136;-35.664;-63.766;2022-09-09T01:48:02;19.60;35.60
59975;DHT22;62136;-35.664;-63.766;2022-09-09T01:50:29;19.60;35.60
59975;DHT22;62136;-35.664;-63.766;2022-09-09T01:53:00;19.50;35.70
59975;DHT22;62136;-35.664;-63.766;2022-09-09T01:55:39;19.50;35.70
59975;DHT22;62136;-35.664;-63.766;2022-09-09T02:03:32;19.50;35.80
59975;DHT22;62136;-35.664;-63.766;2022-09-09T02:08:57;19.40;35.90
59975;DHT22;62136;-35.664;-63.766;2022-09-09T02:11:27;19.40;35.70
59975;DHT22;62136;-35.664;-63.766;2022-09-09T02:13:59;19.40;35.70
59975;DHT22;62136;-35.664;-63.766;2022-09-09T02:21:56;19.20;35.90
59975;DHT22;62136;-35.664;-63.766;2022-09-09T02:24:29;19.20;35.80
59975;DHT22;62136;-35.664;-63.766;2022-09-09T02:26:58;19.20;35.70
59975;DHT22;62136;-35.664;-63.766;2022-09-09T02:29:31;19.20;36.00
59975;DHT22;62136;-35.664;-63.766;2022-09-09T02:32:06;19.20;35.90
59975;DHT22;62136;-35.664;-63.766;2022-09-09T02:34:35;19.10;35.90
59975;DHT22;62136;-35.664;-63.766;2022-09-09T02:37:04;19.10;35.90
59975;DHT22;62136;-35.664;-63.766;2022-09-09T02:39:36;19.10;36.00
59975;DHT22;62136;-35.664;-63.766;2022-09-09T02:42:04;19.10;36.10
59975;DHT22;62136;-35.664;-63.766;2022-09-09T02:44:31;19.10;36.00
59975;DHT22;62136;-35.664;-63.766;2022-09-09T02:52:13;19.00;35.90
59975;DHT22;62136;-35.664;-63.766;2022-09-09T02:54:43;19.10;36.10
59975;DHT22;62136;-35.664;-63.766;2022-09-09T02:57:21;19.00;36.00
59975;DHT22;62136;-35.664;-63.766;2022-09-09T02:59:49;19.00;36.00
59975;DHT22;62136;-35.664;-63.766;2022-09-09T03:02:18;19.00;36.00
59975;DHT22;62136;-35.664;-63.766;2022-09-09T03:04:45;19.00;36.00
59975;DHT22;62136;-35.664;-63.766;2022-09-09T03:07:17;19.00;36.00
59975;DHT22;62136;-35.664;-63.766;2022-09-09T03:09:45;18.90;36.00
59975;DHT22;62136;-35.664;-63.766;2022-09-09T03:12:12;18.90;36.00
59975;DHT22;62136;-35.664;-63.766;2022-09-09T03:14:39;18.90;36.10
59975;DHT22;62136;-35.664;-63.766;2022-09-09T03:17:09;18.90;36.10
59975;DHT22;62136;-35.664;-63.766;2022-09-09T03:19:36;18.80;36.50
59975;DHT22;62136;-35.664;-63.766;2022-09-09T03:22:04;18.80;36.40
59975;DHT22;62136;-35.664;-63.766;2022-09-09T03:24:31;18.80;36.10
59975;DHT22;62136;-35.664;-63.766;2022-09-09T03:27:01;18.80;36.10
59975;DHT22;62136;-35.664;-63.766;2022-09-09T03:29:28;18.80;36.10
59975;DHT22;62136;-35.664;-63.766;2022-09-09T03:31:55;18.80;36.10
59975;DHT22;62136;-35.664;-63.766;2022-09-09T03:34:22;18.70;36.00
59975;DHT22;62136;-35.664;-63.766;2022-09-09T03:36:49;18.70;36.00
59975;DHT22;62136;-35.664;-63.766;2022-09-09T03:39:16;18.70;36.10
59975;DHT22;62136;-35.664;-63.766;2022-09-09T03:41:43;18.70;36.10
59975;DHT22;62136;-35.664;-63.766;2022-09-09T03:44:11;18.70;36.10
59975;DHT22;62136;-35.664;-63.766;2022-09-09T03:46:38;18.70;36.00
59975;DHT22;62136;-35.664;-63.766;2022-09-09T03:49:05;18.60;36.10
59975;DHT22;62136;-35.664;-63.766;2022-09-09T03:51:39;18.70;36.10
59975;DHT22;62136;-35.664;-63.766;2022-09-09T03:54:09;18.60;36.00
59975;DHT22;62136;-35.664;-63.766;2022-09-09T03:56:37;18.60;36.10
59975;DHT22;62136;-35.664;-63.766;2022-09-09T03:59:04;18.60;36.10
59975;DHT22;62136;-35.664;-63.766;2022-09-09T04:01:31;18.60;36.10
59975;DHT22;62136;-35.664;-63.766;2022-09-09T04:03:58;18.50;36.00
59975;DHT22;62136;-35.664;-63.766;2022-09-09T04:06:25;18.60;36.10
59975;DHT22;62136;-35.664;-63.766;2022-09-09T04:08:52;18.50;36.10
59975;DHT22;62136;-35.664;-63.766;2022-09-09T04:11:19;18.50;36.10
59975;DHT22;62136;-35.664;-63.766;2022-09-09T04:13:47;18.50;36.10
59975;DHT22;62136;-35.664;-63.766;2022-09-09T04:16:14;18.50;36.10
59975;DHT22;62136;-35.664;-63.766;2022-09-09T04:18:41;18.40;36.10
59975;DHT22;62136;-35.664;-63.766;2022-09-09T04:21:09;18.40;36.20
59975;DHT22;62136;-35.664;-63.766;2022-09-09T04:23:37;18.40;36.10
59975;DHT22;62136;-35.664;-63.766;2022-09-09T04:26:05;18.40;36.10
59975;DHT22;62136;-35.664;-63.766;2022-09-09T04:28:34;18.40;36.10
59975;DHT22;62136;-35.664;-63.766;2022-09-09T04:31:07;18.30;36.10
59975;DHT22;62136;-35.664;-63.766;2022-09-09T04:33:35;18.30;36.10
59975;DHT22;62136;-35.664;-63.766;2022-09-09T04:36:03;18.30;36.10
59975;DHT22;62136;-35.664;-63.766;2022-09-09T04:38:30;18.30;36.10
59975;DHT22;62136;-35.664;-63.766;2022-09-09T04:40:57;18.30;36.20
59975;DHT22;62136;-35.664;-63.766;2022-09-09T04:43:24;18.20;36.10
59975;DHT22;62136;-35.664;-63.766;2022-09-09T04:45:54;18.20;36.10
59975;DHT22;62136;-35.664;-63.766;2022-09-09T04:48:22;18.20;36.10
59975;DHT22;62136;-35.664;-63.766;2022-09-09T04:51:06;18.20;36.20
59975;DHT22;62136;-35.664;-63.766;2022-09-09T04:53:34;18.20;36.20
59975;DHT22;62136;-35.664;-63.766;2022-09-09T04:56:12;18.10;36.20
59975;DHT22;62136;-35.664;-63.766;2022-09-09T04:58:41;18.10;36.20
59975;DHT22;62136;-35.664;-63.766;2022-09-09T05:01:17;18.10;36.20
59975;DHT22;62136;-35.664;-63.766;2022-09-09T05:03:51;18.10;36.30
59975;DHT22;62136;-35.664;-63.766;2022-09-09T05:06:21;18.10;36.10
59975;DHT22;62136;-35.664;-63.766;2022-09-09T05:08:48;18.00;36.20
59975;DHT22;62136;-35.664;-63.766;2022-09-09T05:11:23;18.00;36.20
59975;DHT22;62136;-35.664;-63.766;2022-09-09T05:13:52;18.00;36.20
59975;DHT22;62136;-35.664;-63.766;2022-09-09T05:16:23;18.00;36.20
59975;DHT22;62136;-35.664;-63.766;2022-09-09T05:18:51;18.00;36.30
59975;DHT22;62136;-35.664;-63.766;2022-09-09T05:21:19;18.00;36.30
59975;DHT22;62136;-35.664;-63.766;2022-09-09T05:23:50;17.90;36.20
59975;DHT22;62136;-35.664;-63.766;2022-09-09T05:26:20;17.90;36.30
59975;DHT22;62136;-35.664;-63.766;2022-09-09T05:28:50;17.90;36.30
59975;DHT22;62136;-35.664;-63.766;2022-09-09T05:31:18;17.90;36.70
59975;DHT22;62136;-35.664;-63.766;2022-09-09T05:33:46;17.80;36.20
59975;DHT22;62136;-35.664;-63.766;2022-09-09T05:36:20;17.80;36.30
59975;DHT22;62136;-35.664;-63.766;2022-09-09T05:38:54;17.80;36.20
59975;DHT22;62136;-35.664;-63.766;2022-09-09T05:41:22;17.80;36.30
59975;DHT22;62136;-35.664;-63.766;2022-09-09T05:43:49;17.80;36.20
59975;DHT22;62136;-35.664;-63.766;2022-09-09T05:46:19;17.80;36.20
59975;DHT22;62136;-35.664;-63.766;2022-09-09T05:48:47;17.70;36.20
59975;DHT22;62136;-35.664;-63.766;2022-09-09T05:51:18;17.70;36.20
59975;DHT22;62136;-35.664;-63.766;2022-09-09T05:53:47;17.70;36.20
59975;DHT22;62136;-35.664;-63.766;2022-09-09T05:56:16;17.70;36.30
59975;DHT22;62136;-35.664;-63.766;2022-09-09T05:58:48;17.70;36.30
59975;DHT22;62136;-35.664;-63.766;2022-09-09T06:01:24;17.70;36.30
59975;DHT22;62136;-35.664;-63.766;2022-09-09T06:03:53;17.70;36.30
59975;DHT22;62136;-35.664;-63.766;2022-09-09T06:06:22;17.60;36.30
59975;DHT22;62136;-35.664;-63.766;2022-09-09T06:08:55;17.60;36.30
59975;DHT22;62136;-35.664;-63.766;2022-09-09T06:11:31;17.60;36.30
59975;DHT22;62136;-35.664;-63.766;2022-09-09T06:13:58;17.60;36.30
59975;DHT22;62136;-35.664;-63.766;2022-09-09T06:16:27;17.50;36.30
59975;DHT22;62136;-35.664;-63.766;2022-09-09T06:18:56;17.50;36.30
59975;DHT22;62136;-35.664;-63.766;2022-09-09T06:21:35;17.50;36.30
59975;DHT22;62136;-35.664;-63.766;2022-09-09T06:24:04;17.50;36.30
59975;DHT22;62136;-35.664;-63.766;2022-09-09T06:26:33;17.50;36.30
59975;DHT22;62136;-35.664;-63.766;2022-09-09T06:29:01;17.40;36.40
59975;DHT22;62136;-35.664;-63.766;2022-09-09T06:31:31;17.40;36.30
59975;DHT22;62136;-35.664;-63.766;2022-09-09T06:34:03;17.40;36.30
59975;DHT22;62136;-35.664;-63.766;2022-09-09T06:36:36;17.40;36.40
59975;DHT22;62136;-35.664;-63.766;2022-09-09T06:39:04;17.40;36.40
59975;DHT22;62136;-35.664;-63.766;2022-09-09T06:41:33;17.40;36.40
59975;DHT22;62136;-35.664;-63.766;2022-09-09T06:44:00;17.40;36.40
59975;DHT22;62136;-35.664;-63.766;2022-09-09T06:46:29;17.30;36.40
59975;DHT22;62136;-35.664;-63.766;2022-09-09T06:48:58;17.30;36.40
59975;DHT22;62136;-35.664;-63.766;2022-09-09T06:51:31;17.30;36.30
59975;DHT22;62136;-35.664;-63.766;2022-09-09T06:54:00;17.30;36.40
59975;DHT22;62136;-35.664;-63.766;2022-09-09T06:56:41;17.30;36.40
59975;DHT22;62136;-35.664;-63.766;2022-09-09T06:59:10;17.30;36.40
59975;DHT22;62136;-35.664;-63.766;2022-09-09T07:01:42;17.30;36.40
59975;DHT22;62136;-35.664;-63.766;2022-09-09T07:04:20;17.30;36.40
59975;DHT22;62136;-35.664;-63.766;2022-09-09T07:06:47;17.30;36.40
59975;DHT22;62136;-35.664;-63.766;2022-09-09T07:09:15;17.20;36.30
59975;DHT22;62136;-35.664;-63.766;2022-09-09T07:11:48;17.20;36.40
59975;DHT22;62136;-35.664;-63.766;2022-09-09T07:14:16;17.20;36.40
59975;DHT22;62136;-35.664;-63.766;2022-09-09T07:16:44;17.20;36.40
59975;DHT22;62136;-35.664;-63.766;2022-09-09T07:19:12;17.10;36.40
59975;DHT22;62136;-35.664;-63.766;2022-09-09T07:21:40;17.10;36.40
59975;DHT22;62136;-35.664;-63.766;2022-09-09T07:24:08;17.10;36.40
59975;DHT22;62136;-35.664;-63.766;2022-09-09T07:26:38;17.10;36.40
59975;DHT22;62136;-35.664;-63.766;2022-09-09T07:29:07;17.10;36.40
59975;DHT22;62136;-35.664;-63.766;2022-09-09T07:31:36;17.10;36.40
59975;DHT22;62136;-35.664;-63.766;2022-09-09T07:34:04;17.00;36.40
59975;DHT22;62136;-35.664;-63.766;2022-09-09T07:36:34;17.00;36.40
59975;DHT22;62136;-35.664;-63.766;2022-09-09T07:44:14;17.00;36.50
59975;DHT22;62136;-35.664;-63.766;2022-09-09T07:46:41;17.00;36.40
59975;DHT22;62136;-35.664;-63.766;2022-09-09T07:49:10;16.90;36.50
59975;DHT22;62136;-35.664;-63.766;2022-09-09T07:51:40;16.90;36.40
59975;DHT22;62136;-35.664;-63.766;2022-09-09T07:54:11;17.00;36.50
59975;DHT22;62136;-35.664;-63.766;2022-09-09T07:56:39;16.90;36.40
59975;DHT22;62136;-35.664;-63.766;2022-09-09T07:59:07;16.90;36.40
59975;DHT22;62136;-35.664;-63.766;2022-09-09T08:01:41;16.90;36.40
59975;DHT22;62136;-35.664;-63.766;2022-09-09T08:04:11;16.90;36.40
59975;DHT22;62136;-35.664;-63.766;2022-09-09T08:06:44;16.80;36.40
59975;DHT22;62136;-35.664;-63.766;2022-09-09T08:09:13;16.80;36.30
59975;DHT22;62136;-35.664;-63.766;2022-09-09T08:11:41;16.80;36.30
59975;DHT22;62136;-35.664;-63.766;2022-09-09T08:14:10;16.80;36.40
59975;DHT22;62136;-35.664;-63.766;2022-09-09T08:16:41;16.80;36.40
59975;DHT22;62136;-35.664;-63.766;2022-09-09T08:19:09;16.70;36.30
59975;DHT22;62136;-35.664;-63.766;2022-09-09T08:21:38;16.70;36.80
59975;DHT22;62136;-35.664;-63.766;2022-09-09T08:24:07;16.70;36.30
59975;DHT22;62136;-35.664;-63.766;2022-09-09T08:26:39;16.70;36.40
59975;DHT22;62136;-35.664;-63.766;2022-09-09T08:29:09;16.70;36.40
59975;DHT22;62136;-35.664;-63.766;2022-09-09T08:31:44;16.70;36.40
59975;DHT22;62136;-35.664;-63.766;2022-09-09T08:34:13;16.70;36.40
59975;DHT22;62136;-35.664;-63.766;2022-09-09T08:36:43;16.70;36.40
59975;DHT22;62136;-35.664;-63.766;2022-09-09T08:39:12;16.60;36.30
59975;DHT22;62136;-35.664;-63.766;2022-09-09T08:52:30;16.60;36.30
59975;DHT22;62136;-35.664;-63.766;2022-09-09T08:57:54;16.60;36.30
59975;DHT22;62136;-35.664;-63.766;2022-09-09T09:00:22;16.50;36.30
59975;DHT22;62136;-35.664;-63.766;2022-09-09T09:03:12;16.50;36.30
59975;DHT22;62136;-35.664;-63.766;2022-09-09T09:06:13;16.50;36.20
59975;DHT22;62136;-35.664;-63.766;2022-09-09T09:08:48;16.50;36.30
59975;DHT22;62136;-35.664;-63.766;2022-09-09T09:11:21;16.50;36.20
59975;DHT22;62136;-35.664;-63.766;2022-09-09T09:13:57;16.40;36.30
59975;DHT22;62136;-35.664;-63.766;2022-09-09T09:19:22;16.40;36.20
59975;DHT22;62136;-35.664;-63.766;2022-09-09T09:22:25;16.40;36.70
59975;DHT22;62136;-35.664;-63.766;2022-09-09T09:25:12;16.40;36.20
59975;DHT22;62136;-35.664;-63.766;2022-09-09T09:28:01;16.40;36.20
59975;DHT22;62136;-35.664;-63.766;2022-09-09T09:35:43;16.30;36.70
59975;DHT22;62136;-35.664;-63.766;2022-09-09T09:38:22;16.30;36.20
59975;DHT22;62136;-35.664;-63.766;2022-09-09T09:40:52;16.30;36.20
59975;DHT22;62136;-35.664;-63.766;2022-09-09T09:43:39;16.30;36.20
59975;DHT22;62136;-35.664;-63.766;2022-09-09T09:46:21;16.30;36.20
59975;DHT22;62136;-35.664;-63.766;2022-09-09T09:49:02;16.20;36.10
59975;DHT22;62136;-35.664;-63.766;2022-09-09T09:51:32;16.20;36.10
59975;DHT22;62136;-35.664;-63.766;2022-09-09T09:54:27;16.20;36.10
59975;DHT22;62136;-35.664;-63.766;2022-09-09T09:56:55;16.20;36.10
59975;DHT22;62136;-35.664;-63.766;2022-09-09T09:59:42;16.10;36.10
59975;DHT22;62136;-35.664;-63.766;2022-09-09T10:02:20;16.20;36.20
59975;DHT22;62136;-35.664;-63.766;2022-09-09T10:05:05;16.10;36.10
59975;DHT22;62136;-35.664;-63.766;2022-09-09T10:07:33;16.10;36.20
59975;DHT22;62136;-35.664;-63.766;2022-09-09T10:10:00;16.10;36.10
59975;DHT22;62136;-35.664;-63.766;2022-09-09T10:12:57;16.10;36.10
59975;DHT22;62136;-35.664;-63.766;2022-09-09T10:16:02;16.10;36.10
59975;DHT22;62136;-35.664;-63.766;2022-09-09T10:18:48;16.10;36.00
59975;DHT22;62136;-35.664;-63.766;2022-09-09T10:21:25;16.00;36.00
59975;DHT22;62136;-35.664;-63.766;2022-09-09T10:24:44;16.00;35.90
59975;DHT22;62136;-35.664;-63.766;2022-09-09T10:33:30;16.00;35.90
59975;DHT22;62136;-35.664;-63.766;2022-09-09T10:36:23;15.90;35.90
59975;DHT22;62136;-35.664;-63.766;2022-09-09T10:44:59;15.90;36.00
59975;DHT22;62136;-35.664;-63.766;2022-09-09T10:47:55;15.80;36.00
59975;DHT22;62136;-35.664;-63.766;2022-09-09T10:56:22;15.90;35.80
59975;DHT22;62136;-35.664;-63.766;2022-09-09T10:59:14;15.80;35.70
59975;DHT22;62136;-35.664;-63.766;2022-09-09T11:02:13;15.90;35.90
59975;DHT22;62136;-35.664;-63.766;2022-09-09T11:04:57;15.90;35.70
59975;DHT22;62136;-35.664;-63.766;2022-09-09T11:10:11;15.90;35.80
59975;DHT22;62136;-35.664;-63.766;2022-09-09T11:12:42;15.90;35.80
59975;DHT22;62136;-35.664;-63.766;2022-09-09T11:15:35;15.90;35.80
59975;DHT22;62136;-35.664;-63.766;2022-09-09T11:18:05;15.90;35.80
59975;DHT22;62136;-35.664;-63.766;2022-09-09T11:20:34;15.90;35.80
59975;DHT22;62136;-35.664;-63.766;2022-09-09T11:23:03;16.00;35.90
59975;DHT22;62136;-35.664;-63.766;2022-09-09T11:25:44;16.00;36.10
59975;DHT22;62136;-35.664;-63.766;2022-09-09T11:34:17;16.00;36.80
59975;DHT22;62136;-35.664;-63.766;2022-09-09T11:39:38;16.00;37.60
59975;DHT22;62136;-35.664;-63.766;2022-09-09T11:44:41;16.10;39.30
59975;DHT22;62136;-35.664;-63.766;2022-09-09T11:47:27;16.10;40.00
59975;DHT22;62136;-35.664;-63.766;2022-09-09T11:52:47;16.10;40.20
59975;DHT22;62136;-35.664;-63.766;2022-09-09T11:55:34;16.20;40.50
59975;DHT22;62136;-35.664;-63.766;2022-09-09T11:58:05;16.20;41.40
59975;DHT22;62136;-35.664;-63.766;2022-09-09T12:00:43;16.20;42.20
59975;DHT22;62136;-35.664;-63.766;2022-09-09T12:06:19;16.30;43.90
59975;DHT22;62136;-35.664;-63.766;2022-09-09T12:08:55;16.40;45.20
59975;DHT22;62136;-35.664;-63.766;2022-09-09T12:11:30;16.40;46.10
59975;DHT22;62136;-35.664;-63.766;2022-09-09T12:14:00;16.50;47.80
59975;DHT22;62136;-35.664;-63.766;2022-09-09T12:16:37;16.60;49.80
59975;DHT22;62136;-35.664;-63.766;2022-09-09T12:19:18;16.60;51.00
59975;DHT22;62136;-35.664;-63.766;2022-09-09T12:22:49;16.70;53.00
59975;DHT22;62136;-35.664;-63.766;2022-09-09T12:25:09;16.70;54.40
59975;DHT22;62136;-35.664;-63.766;2022-09-09T12:28:08;16.80;57.40
59975;DHT22;62136;-35.664;-63.766;2022-09-09T12:33:24;17.00;59.90
59975;DHT22;62136;-35.664;-63.766;2022-09-09T12:36:00;17.00;61.70
59975;DHT22;62136;-35.664;-63.766;2022-09-09T12:38:34;17.10;63.60
59975;DHT22;62136;-35.664;-63.766;2022-09-09T12:41:04;17.10;65.50
59975;DHT22;62136;-35.664;-63.766;2022-09-09T12:43:32;17.20;66.70
59975;DHT22;62136;-35.664;-63.766;2022-09-09T12:46:02;17.30;68.30
59975;DHT22;62136;-35.664;-63.766;2022-09-09T12:48:35;17.30;69.70
59975;DHT22;62136;-35.664;-63.766;2022-09-09T12:51:07;17.40;71.70
59975;DHT22;62136;-35.664;-63.766;2022-09-09T12:53:45;17.50;72.20
59975;DHT22;62136;-35.664;-63.766;2022-09-09T12:56:20;17.50;72.90
59975;DHT22;62136;-35.664;-63.766;2022-09-09T12:58:52;17.50;73.50
59975;DHT22;62136;-35.664;-63.766;2022-09-09T13:01:27;17.60;74.00
59975;DHT22;62136;-35.664;-63.766;2022-09-09T13:03:55;17.70;64.80
59975;DHT22;62136;-35.664;-63.766;2022-09-09T13:06:27;18.10;61.70
59975;DHT22;62136;-35.664;-63.766;2022-09-09T13:08:57;19.10;58.80
59975;DHT22;62136;-35.664;-63.766;2022-09-09T13:11:30;20.00;55.10
59975;DHT22;62136;-35.664;-63.766;2022-09-09T13:14:00;20.60;52.80
59975;DHT22;62136;-35.664;-63.766;2022-09-09T13:16:30;21.30;51.10
59975;DHT22;62136;-35.664;-63.766;2022-09-09T13:19:28;22.00;49.10
59975;DHT22;62136;-35.664;-63.766;2022-09-09T13:21:57;22.70;47.30
59975;DHT22;62136;-35.664;-63.766;2022-09-09T13:24:33;23.20;45.60
59975;DHT22;62136;-35.664;-63.766;2022-09-09T13:27:51;23.50;44.20
59975;DHT22;62136;-35.664;-63.766;2022-09-09T13:29:55;23.40;43.70
59975;DHT22;62136;-35.664;-63.766;2022-09-09T13:32:25;23.10;44.60
59975;DHT22;62136;-35.664;-63.766;2022-09-09T13:34:58;22.80;45.10
59975;DHT22;62136;-35.664;-63.766;2022-09-09T13:39:59;22.20;46.00
59975;DHT22;62136;-35.664;-63.766;2022-09-09T13:42:28;22.40;44.80
59975;DHT22;62136;-35.664;-63.766;2022-09-09T13:44:58;22.80;43.80
59975;DHT22;62136;-35.664;-63.766;2022-09-09T13:47:35;23.30;42.50
59975;DHT22;62136;-35.664;-63.766;2022-09-09T13:50:26;23.60;41.30
59975;DHT22;62136;-35.664;-63.766;2022-09-09T13:52:55;24.00;40.20
59975;DHT22;62136;-35.664;-63.766;2022-09-09T13:55:28;23.70;40.70
59975;DHT22;62136;-35.664;-63.766;2022-09-09T13:58:00;23.50;41.80
59975;DHT22;62136;-35.664;-63.766;2022-09-09T14:00:30;23.10;43.20
59975;DHT22;62136;-35.664;-63.766;2022-09-09T14:02:57;22.80;43.20
59975;DHT22;62136;-35.664;-63.766;2022-09-09T14:05:30;22.50;44.40
59975;DHT22;62136;-35.664;-63.766;2022-09-09T14:07:58;22.60;42.30
59975;DHT22;62136;-35.664;-63.766;2022-09-09T14:10:27;23.20;41.00
59975;DHT22;62136;-35.664;-63.766;2022-09-09T14:12:58;23.50;40.20
59975;DHT22;62136;-35.664;-63.766;2022-09-09T14:15:28;23.50;40.10
59975;DHT22;62136;-35.664;-63.766;2022-09-09T14:18:16;23.40;40.40
59975;DHT22;62136;-35.664;-63.766;2022-09-09T14:20:44;23.10;42.40
59975;DHT22;62136;-35.664;-63.766;2022-09-09T14:23:11;22.80;41.80
59975;DHT22;62136;-35.664;-63.766;2022-09-09T14:25:43;22.60;43.40
59975;DHT22;62136;-35.664;-63.766;2022-09-09T14:28:11;22.40;44.30
59975;DHT22;62136;-35.664;-63.766;2022-09-09T14:30:41;22.20;45.80
59975;DHT22;62136;-35.664;-63.766;2022-09-09T14:33:11;22.00;46.20
59975;DHT22;62136;-35.664;-63.766;2022-09-09T14:35:38;21.80;48.00
59975;DHT22;62136;-35.664;-63.766;2022-09-09T14:38:08;21.70;47.30
59975;DHT22;62136;-35.664;-63.766;2022-09-09T14:40:36;21.50;47.30
59975;DHT22;62136;-35.664;-63.766;2022-09-09T14:43:06;21.40;47.50
59975;DHT22;62136;-35.664;-63.766;2022-09-09T14:45:33;21.40;47.80
59975;DHT22;62136;-35.664;-63.766;2022-09-09T14:48:04;21.30;47.30
59975;DHT22;62136;-35.664;-63.766;2022-09-09T14:50:31;21.20;48.90
59975;DHT22;62136;-35.664;-63.766;2022-09-09T14:52:58;21.20;48.70
59975;DHT22;62136;-35.664;-63.766;2022-09-09T14:55:26;21.10;49.70
59975;DHT22;62136;-35.664;-63.766;2022-09-09T14:57:55;21.10;50.10
59975;DHT22;62136;-35.664;-63.766;2022-09-09T15:00:22;21.10;51.70
59975;DHT22;62136;-35.664;-63.766;2022-09-09T15:02:55;21.10;51.30
59975;DHT22;62136;-35.664;-63.766;2022-09-09T15:05:25;21.20;51.50
59975;DHT22;62136;-35.664;-63.766;2022-09-09T15:07:54;21.20;53.20
59975;DHT22;62136;-35.664;-63.766;2022-09-09T15:10:23;21.20;53.70
59975;DHT22;62136;-35.664;-63.766;2022-09-09T15:12:50;21.30;56.40
59975;DHT22;62136;-35.664;-63.766;2022-09-09T15:15:17;21.40;58.10
59975;DHT22;62136;-35.664;-63.766;2022-09-09T15:17:44;21.30;57.80
59975;DHT22;62136;-35.664;-63.766;2022-09-09T15:20:11;21.30;59.30
59975;DHT22;62136;-35.664;-63.766;2022-09-09T15:22:38;21.30;57.20
59975;DHT22;62136;-35.664;-63.766;2022-09-09T15:25:06;21.40;58.80
59975;DHT22;62136;-35.664;-63.766;2022-09-09T15:27:34;21.40;61.20
59975;DHT22;62136;-35.664;-63.766;2022-09-09T15:30:03;21.40;62.10
59975;DHT22;62136;-35.664;-63.766;2022-09-09T15:32:30;21.40;61.80
59975;DHT22;62136;-35.664;-63.766;2022-09-09T15:34:58;21.50;62.30
59975;DHT22;62136;-35.664;-63.766;2022-09-09T15:37:25;21.40;61.90
59975;DHT22;62136;-35.664;-63.766;2022-09-09T15:39:54;21.50;63.50
59975;DHT22;62136;-35.664;-63.766;2022-09-09T15:42:23;21.50;61.90
59975;DHT22;62136;-35.664;-63.766;2022-09-09T15:44:51;21.50;64.00
59975;DHT22;62136;-35.664;-63.766;2022-09-09T15:47:18;21.50;65.90
59975;DHT22;62136;-35.664;-63.766;2022-09-09T15:49:46;21.50;64.70
59975;DHT22;62136;-35.664;-63.766;2022-09-09T15:52:13;21.50;62.90
59975;DHT22;62136;-35.664;-63.766;2022-09-09T15:54:40;21.50;63.30
59975;DHT22;62136;-35.664;-63.766;2022-09-09T15:57:12;21.50;64.00
59975;DHT22;62136;-35.664;-63.766;2022-09-09T15:59:39;21.50;64.30
59975;DHT22;62136;-35.664;-63.766;2022-09-09T16:02:07;21.50;63.70
59975;DHT22;62136;-35.664;-63.766;2022-09-09T16:04:34;21.50;63.40
59975;DHT22;62136;-35.664;-63.766;2022-09-09T16:07:03;21.50;62.20
59975;DHT22;62136;-35.664;-63.766;2022-09-09T16:09:31;21.60;63.10
59975;DHT22;62136;-35.664;-63.766;2022-09-09T16:12:00;21.50;61.50
59975;DHT22;62136;-35.664;-63.766;2022-09-09T16:14:29;21.50;61.60
59975;DHT22;62136;-35.664;-63.766;2022-09-09T16:17:01;21.60;60.80
59975;DHT22;62136;-35.664;-63.766;2022-09-09T16:19:28;21.50;60.00
59975;DHT22;62136;-35.664;-63.766;2022-09-09T16:21:56;21.60;59.90
59975;DHT22;62136;-35.664;-63.766;2022-09-09T16:24:23;21.50;59.40
59975;DHT22;62136;-35.664;-63.766;2022-09-09T16:26:52;21.60;59.40
59975;DHT22;62136;-35.664;-63.766;2022-09-09T16:29:21;21.60;59.20
59975;DHT22;62136;-35.664;-63.766;2022-09-09T16:31:50;21.60;58.10
59975;DHT22;62136;-35.664;-63.766;2022-09-09T16:34:17;21.60;57.90
59975;DHT22;62136;-35.664;-63.766;2022-09-09T16:36:45;21.60;58.10
59975;DHT22;62136;-35.664;-63.766;2022-09-09T16:39:15;21.60;57.10
59975;DHT22;62136;-35.664;-63.766;2022-09-09T16:41:46;21.50;56.30
59975;DHT22;62136;-35.664;-63.766;2022-09-09T16:44:15;21.50;55.40
59975;DHT22;62136;-35.664;-63.766;2022-09-09T16:46:44;21.50;55.60
59975;DHT22;62136;-35.664;-63.766;2022-09-09T16:49:13;21.50;55.40
59975;DHT22;62136;-35.664;-63.766;2022-09-09T16:51:44;21.40;54.70
59975;DHT22;62136;-35.664;-63.766;2022-09-09T16:54:13;21.40;53.90
59975;DHT22;62136;-35.664;-63.766;2022-09-09T16:56:44;21.40;53.60
59975;DHT22;62136;-35.664;-63.766;2022-09-09T16:59:17;21.40;53.80
59975;DHT22;62136;-35.664;-63.766;2022-09-09T17:01:46;21.40;53.50
59975;DHT22;62136;-35.664;-63.766;2022-09-09T17:04:16;21.40;53.50
59975;DHT22;62136;-35.664;-63.766;2022-09-09T17:06:48;21.30;52.40
59975;DHT22;62136;-35.664;-63.766;2022-09-09T17:09:19;21.30;52.70
59975;DHT22;62136;-35.664;-63.766;2022-09-09T17:11:47;21.30;51.90
59975;DHT22;62136;-35.664;-63.766;2022-09-09T17:14:17;21.20;51.20